createdAt,value
2018-10-12T00:02:07.187Z,16.30
2018-10-12T00:04:35.706Z,16.30
2018-10-12T00:07:04.331Z,16.30
2018-10-12T00:09:32.848Z,16.20
2018-10-12T00:12:01.405Z,16.20
2018-10-12T00:14:29.916Z,16.20
2018-10-12T00:16:58.581Z,16.10
2018-10-12T00:19:27.381Z,16.00
2018-10-12T00:21:55.941Z,16.00
2018-10-12T00:24:24.456Z,15.90
2018-10-12T00:26:52.964Z,16.00
2018-10-12T00:29:21.491Z,15.90
2018-10-12T00:31:50.106Z,15.80
2018-10-12T00:34:18.631Z,15.80
2018-10-12T00:36:47.031Z,15.70
2018-10-12T00:39:15.421Z,15.70
2018-10-12T00:41:43.874Z,15.70
2018-10-12T00:44:12.268Z,15.70
2018-10-12T00:46:40.711Z,15.60
2018-10-12T00:49:09.415Z,15.60
2018-10-12T00:51:37.822Z,15.60
2018-10-12T00:54:06.361Z,15.50
2018-10-12T00:56:34.845Z,15.50
2018-10-12T00:59:03.287Z,15.40
2018-10-12T01:01:31.707Z,15.40
2018-10-12T01:04:00.141Z,15.40
2018-10-12T01:06:28.598Z,15.30
2018-10-12T01:08:57.116Z,15.30
2018-10-12T01:11:25.554Z,15.20
2018-10-12T01:13:53.992Z,15.20
2018-10-12T01:16:22.409Z,15.20
2018-10-12T01:18:51.198Z,15.10
2018-10-12T01:21:19.962Z,15.00
2018-10-12T01:23:48.566Z,15.00
2018-10-12T01:26:17.070Z,15.00
2018-10-12T01:28:49.864Z,14.90
2018-10-12T01:31:18.603Z,15.00
2018-10-12T01:33:47.298Z,15.00
2018-10-12T01:36:15.851Z,14.90
2018-10-12T01:38:44.354Z,14.90
2018-10-12T01:41:12.917Z,14.90
2018-10-12T01:43:41.443Z,14.90
2018-10-12T01:46:09.895Z,14.90
2018-10-12T01:48:38.343Z,14.80
2018-10-12T01:51:07.225Z,14.80
2018-10-12T01:53:35.948Z,14.70
2018-10-12T01:56:05.545Z,14.80
2018-10-12T01:58:34.547Z,14.70
2018-10-12T02:01:03.181Z,14.70
2018-10-12T02:03:31.826Z,14.70
2018-10-12T02:06:00.272Z,14.70
2018-10-12T02:08:28.689Z,14.70
2018-10-12T02:10:57.123Z,14.60
2018-10-12T02:13:25.572Z,14.60
2018-10-12T02:15:54.023Z,14.60
2018-10-12T02:18:22.461Z,14.50
2018-10-12T02:20:50.922Z,14.60
2018-10-12T02:23:19.391Z,14.60
2018-10-12T02:25:47.828Z,14.50
2018-10-12T02:28:16.250Z,14.50
2018-10-12T02:30:44.716Z,14.50
2018-10-12T02:33:13.181Z,14.50
2018-10-12T02:35:42.059Z,14.50
2018-10-12T02:38:10.537Z,14.40
2018-10-12T02:40:39.066Z,14.40
2018-10-12T02:43:07.617Z,14.30
2018-10-12T02:45:36.066Z,14.30
2018-10-12T02:48:04.601Z,14.20
2018-10-12T02:50:33.061Z,14.20
2018-10-12T02:53:01.546Z,14.10
2018-10-12T02:55:36.664Z,14.10
2018-10-12T02:58:05.094Z,14.10
2018-10-12T03:00:33.524Z,14.00
2018-10-12T03:03:01.942Z,14.00
2018-10-12T03:05:30.348Z,13.90
2018-10-12T03:07:58.798Z,13.90
2018-10-12T03:10:27.221Z,13.90
2018-10-12T03:12:55.695Z,13.90
2018-10-12T03:15:24.133Z,13.90
2018-10-12T03:17:52.553Z,13.90
2018-10-12T03:20:20.977Z,13.90
2018-10-12T03:22:49.383Z,13.90
2018-10-12T03:25:17.805Z,13.90
2018-10-12T03:27:57.789Z,13.90
2018-10-12T03:30:26.293Z,13.90
2018-10-12T03:32:54.800Z,13.80
2018-10-12T03:35:23.283Z,13.80
2018-10-12T03:37:51.779Z,13.80
2018-10-12T03:40:20.243Z,13.80
2018-10-12T03:42:48.722Z,13.80
2018-10-12T03:45:17.326Z,13.80
2018-10-12T03:47:45.753Z,13.70
2018-10-12T03:50:14.204Z,13.70
2018-10-12T03:52:42.645Z,13.70
2018-10-12T03:55:11.146Z,13.70
2018-10-12T03:57:39.581Z,13.70
2018-10-12T04:00:08.065Z,13.70
2018-10-12T04:02:36.562Z,13.70
2018-10-12T04:05:05.213Z,13.70
2018-10-12T04:07:33.658Z,13.60
2018-10-12T04:10:02.082Z,13.60
2018-10-12T04:12:30.598Z,13.60
2018-10-12T04:14:58.957Z,13.60
2018-10-12T04:17:27.441Z,13.60
2018-10-12T04:19:55.883Z,13.70
2018-10-12T04:22:25.865Z,13.70
2018-10-12T04:24:54.378Z,13.70
2018-10-12T04:27:22.786Z,13.70
2018-10-12T04:29:51.230Z,13.70
2018-10-12T04:32:20.912Z,13.70
2018-10-12T04:34:49.350Z,13.70
2018-10-12T04:37:17.854Z,13.70
2018-10-12T04:40:33.768Z,13.80
2018-10-12T04:43:02.226Z,13.80
2018-10-12T04:45:30.726Z,13.80
2018-10-12T04:47:59.212Z,13.80
2018-10-12T04:50:27.685Z,13.80
2018-10-12T04:52:56.099Z,13.70
2018-10-12T04:55:24.594Z,13.60
2018-10-12T04:57:53.033Z,13.60
2018-10-12T05:00:21.528Z,13.60
2018-10-12T05:02:49.965Z,13.50
2018-10-12T05:05:18.433Z,13.50
2018-10-12T05:07:47.009Z,13.50
2018-10-12T05:10:15.470Z,13.50
2018-10-12T05:12:44.076Z,13.50
2018-10-12T05:15:12.474Z,13.50
2018-10-12T05:17:40.944Z,13.50
2018-10-12T05:20:09.364Z,13.50
2018-10-12T05:22:37.803Z,13.50
2018-10-12T05:25:06.221Z,13.40
2018-10-12T05:27:36.618Z,13.40
2018-10-12T05:30:05.162Z,13.30
2018-10-12T05:32:33.562Z,13.30
2018-10-12T05:35:01.969Z,13.30
2018-10-12T05:37:30.388Z,13.30
2018-10-12T05:39:58.815Z,13.20
2018-10-12T05:42:27.286Z,13.20
2018-10-12T05:44:55.768Z,13.20
2018-10-12T05:47:24.191Z,13.20
2018-10-12T05:50:00.277Z,13.20
2018-10-12T05:52:29.569Z,13.20
2018-10-12T05:54:58.873Z,13.20
2018-10-12T05:57:27.397Z,13.20
2018-10-12T05:59:55.918Z,13.20
2018-10-12T06:02:24.430Z,13.20
2018-10-12T06:04:52.880Z,13.30
2018-10-12T06:07:21.683Z,13.30
2018-10-12T06:09:50.505Z,13.30
2018-10-12T06:12:19.497Z,13.30
2018-10-12T06:14:48.019Z,13.40
2018-10-12T06:17:16.500Z,13.40
2018-10-12T06:19:44.982Z,13.50
2018-10-12T06:22:13.386Z,13.50
2018-10-12T06:24:41.880Z,13.60
2018-10-12T06:27:10.377Z,13.60
2018-10-12T06:29:38.833Z,13.60
2018-10-12T06:32:07.622Z,13.70
2018-10-12T06:34:36.115Z,13.70
2018-10-12T06:37:04.579Z,13.80
2018-10-12T06:39:33.043Z,13.80
2018-10-12T06:42:01.491Z,13.90
2018-10-12T06:44:29.963Z,14.00
2018-10-12T06:46:58.434Z,14.10
2018-10-12T06:49:26.975Z,14.20
2018-10-12T06:51:55.438Z,14.30
2018-10-12T06:54:23.919Z,14.30
2018-10-12T06:56:52.372Z,14.40
2018-10-12T06:59:20.826Z,14.50
2018-10-12T07:01:49.294Z,14.70
2018-10-12T07:04:17.785Z,14.80
2018-10-12T07:06:46.286Z,14.90
2018-10-12T07:09:14.775Z,15.10
2018-10-12T07:11:43.335Z,15.20
2018-10-12T07:14:12.281Z,15.30
2018-10-12T07:16:40.321Z,15.40
2018-10-12T07:19:09.362Z,15.50
2018-10-12T07:21:37.901Z,15.50
2018-10-12T07:24:06.666Z,15.60
2018-10-12T07:26:35.163Z,15.60
2018-10-12T07:29:03.681Z,15.70
2018-10-12T07:31:32.161Z,15.80
2018-10-12T07:34:00.677Z,15.80
2018-10-12T07:36:29.293Z,15.90
2018-10-12T07:38:57.906Z,16.00
2018-10-12T07:41:26.341Z,16.10
2018-10-12T07:43:54.745Z,16.10
2018-10-12T07:46:23.230Z,16.20
2018-10-12T07:48:51.738Z,16.40
2018-10-12T07:51:20.182Z,16.60
2018-10-12T07:53:48.644Z,16.70
2018-10-12T07:56:17.107Z,16.90
2018-10-12T07:58:45.563Z,17.00
2018-10-12T08:01:14.014Z,17.20
2018-10-12T08:03:42.464Z,17.40
2018-10-12T08:06:10.971Z,17.40
2018-10-12T08:08:39.380Z,17.40
2018-10-12T08:11:08.188Z,17.50
2018-10-12T08:13:36.745Z,17.60
2018-10-12T08:16:05.224Z,17.60
2018-10-12T08:18:33.782Z,17.70
2018-10-12T08:21:02.288Z,17.70
2018-10-12T08:23:30.752Z,17.80
2018-10-12T08:25:59.228Z,17.80
2018-10-12T08:28:27.751Z,17.70
2018-10-12T08:30:56.213Z,17.70
2018-10-12T08:33:25.373Z,17.70
2018-10-12T08:35:53.837Z,17.80
2018-10-12T08:38:22.373Z,17.90
2018-10-12T08:40:50.839Z,18.00
2018-10-12T08:43:19.335Z,18.20
2018-10-12T08:45:47.805Z,18.40
2018-10-12T08:48:16.269Z,18.60
2018-10-12T08:50:44.884Z,18.80
2018-10-12T08:53:13.438Z,18.90
2018-10-12T08:55:42.004Z,18.90
2018-10-12T08:58:10.581Z,18.90
2018-10-12T09:00:39.166Z,19.00
2018-10-12T09:03:07.829Z,19.10
2018-10-12T09:05:36.308Z,19.20
2018-10-12T09:08:04.894Z,19.20
2018-10-12T09:10:33.418Z,19.60
2018-10-12T09:13:02.070Z,19.80
2018-10-12T09:15:30.501Z,19.90
2018-10-12T09:17:58.996Z,19.90
2018-10-12T09:20:27.539Z,20.00
2018-10-12T09:22:55.983Z,20.10
2018-10-12T09:25:24.467Z,20.50
2018-10-12T09:27:53.033Z,21.10
2018-10-12T09:30:21.591Z,21.50
2018-10-12T09:32:50.043Z,22.20
2018-10-12T09:35:18.537Z,22.90
2018-10-12T09:37:47.003Z,23.20
2018-10-12T09:40:15.481Z,23.30
2018-10-12T09:42:43.981Z,23.10
2018-10-12T09:45:12.472Z,23.70
2018-10-12T09:47:40.955Z,24.10
2018-10-12T09:50:09.598Z,24.60
2018-10-12T09:52:38.075Z,24.90
2018-10-12T09:55:06.588Z,25.60
2018-10-12T09:57:35.652Z,26.20
2018-10-12T10:00:08.127Z,25.90
2018-10-12T10:02:41.984Z,26.00
2018-10-12T10:05:11.146Z,26.50
2018-10-12T10:07:40.600Z,26.30
2018-10-12T10:10:09.034Z,26.20
2018-10-12T10:12:37.498Z,25.60
2018-10-12T10:15:06.034Z,26.00
2018-10-12T10:17:34.481Z,25.70
2018-10-12T10:20:02.985Z,25.10
2018-10-12T10:22:31.543Z,25.20
2018-10-12T10:24:59.953Z,25.90
2018-10-12T10:27:28.401Z,26.20
2018-10-12T10:29:56.894Z,26.60
2018-10-12T10:32:25.336Z,26.60
2018-10-12T10:34:53.774Z,26.40
2018-10-12T10:37:22.260Z,25.90
2018-10-12T10:39:50.738Z,25.80
2018-10-12T10:42:19.179Z,25.80
2018-10-12T10:44:47.681Z,26.00
2018-10-12T10:47:16.165Z,26.10
2018-10-12T10:49:45.062Z,26.40
2018-10-12T10:52:13.531Z,26.80
2018-10-12T10:54:42.002Z,27.60
2018-10-12T10:57:10.606Z,27.60
2018-10-12T10:59:39.076Z,28.40
2018-10-12T11:02:07.643Z,28.20
2018-10-12T11:04:36.245Z,28.00
2018-10-12T11:07:04.718Z,27.90
2018-10-12T11:09:33.768Z,26.90
2018-10-12T11:12:02.275Z,26.80
2018-10-12T11:14:30.743Z,27.40
2018-10-12T11:16:59.197Z,27.60
2018-10-12T11:19:27.730Z,28.70
2018-10-12T11:21:56.233Z,29.70
2018-10-12T11:24:24.748Z,29.80
2018-10-12T11:26:53.258Z,29.30
2018-10-12T11:29:21.615Z,29.50
2018-10-12T11:31:50.124Z,29.90
2018-10-12T11:34:18.650Z,29.30
2018-10-12T11:36:47.122Z,30.00
2018-10-12T11:39:16.228Z,29.20
2018-10-12T11:41:44.765Z,29.20
2018-10-12T11:44:13.257Z,29.40
2018-10-12T11:46:41.726Z,30.30
2018-10-12T11:49:10.233Z,31.10
2018-10-12T11:51:38.704Z,31.30
2018-10-12T11:54:07.269Z,30.40
2018-10-12T11:56:35.716Z,30.50
2018-10-12T11:59:04.234Z,30.90
2018-10-12T12:01:32.673Z,31.20
2018-10-12T12:04:01.272Z,31.20
2018-10-12T12:06:29.503Z,31.50
2018-10-12T12:08:58.019Z,31.90
2018-10-12T12:11:26.483Z,32.40
2018-10-12T12:13:55.047Z,32.70
2018-10-12T12:16:23.424Z,32.10
2018-10-12T12:18:51.902Z,31.10
2018-10-12T12:21:20.478Z,29.80
2018-10-12T12:23:48.921Z,29.90
2018-10-12T12:26:17.381Z,30.30
2018-10-12T12:28:45.892Z,30.20
2018-10-12T12:31:14.322Z,30.50
2018-10-12T12:33:42.783Z,29.90
2018-10-12T12:36:12.501Z,30.00
2018-10-12T12:38:40.850Z,30.60
2018-10-12T12:41:09.306Z,32.10
2018-10-12T12:43:37.736Z,32.20
2018-10-12T12:46:06.201Z,32.30
2018-10-12T12:48:36.033Z,30.60
2018-10-12T12:51:04.210Z,29.30
2018-10-12T12:53:32.709Z,28.80
2018-10-12T12:56:01.179Z,28.90
2018-10-12T12:58:29.689Z,28.30
2018-10-12T13:00:58.242Z,28.60
2018-10-12T13:03:26.777Z,29.90
2018-10-12T13:05:55.275Z,31.00
2018-10-12T13:08:23.769Z,30.20
2018-10-12T13:10:52.301Z,28.40
2018-10-12T13:13:21.146Z,28.30
2018-10-12T13:15:49.762Z,29.40
2018-10-12T13:18:18.284Z,30.50
2018-10-12T13:20:47.130Z,31.10
2018-10-12T13:23:15.634Z,30.80
2018-10-12T13:25:44.055Z,29.20
2018-10-12T13:28:12.487Z,28.30
2018-10-12T13:30:40.935Z,27.90
2018-10-12T13:33:09.411Z,27.10
2018-10-12T13:35:37.955Z,26.30
2018-10-12T13:38:06.675Z,25.40
2018-10-12T13:40:35.099Z,25.10
2018-10-12T13:43:03.533Z,25.10
2018-10-12T13:45:32.005Z,24.80
2018-10-12T13:48:00.447Z,24.30
2018-10-12T13:50:28.917Z,23.90
2018-10-12T13:52:57.379Z,23.70
2018-10-12T13:55:25.885Z,23.60
2018-10-12T13:57:54.371Z,23.70
2018-10-12T14:00:23.169Z,23.80
2018-10-12T14:02:51.634Z,23.70
2018-10-12T14:05:20.097Z,23.70
2018-10-12T14:07:49.312Z,23.50
2018-10-12T14:10:17.850Z,23.40
2018-10-12T14:12:46.590Z,23.40
2018-10-12T14:15:15.125Z,23.70
2018-10-12T14:17:43.718Z,23.80
2018-10-12T14:20:12.250Z,23.50
2018-10-12T14:22:40.797Z,23.40
2018-10-12T14:25:09.366Z,23.30
2018-10-12T14:27:37.881Z,23.40
2018-10-12T14:30:06.700Z,23.50
2018-10-12T14:32:35.214Z,23.60
2018-10-12T14:35:03.915Z,23.60
2018-10-12T14:37:32.428Z,23.60
2018-10-12T14:40:00.933Z,23.90
2018-10-12T14:42:29.511Z,24.50
2018-10-12T14:44:58.175Z,24.90
2018-10-12T14:47:26.770Z,24.80
2018-10-12T14:49:55.283Z,25.00
2018-10-12T14:52:23.829Z,25.30
2018-10-12T14:54:52.315Z,24.90
2018-10-12T14:57:21.478Z,24.60
2018-10-12T14:59:50.875Z,24.40
2018-10-12T15:02:19.896Z,24.10
2018-10-12T15:04:48.700Z,23.90
2018-10-12T15:07:24.000Z,24.00
2018-10-12T15:09:52.519Z,24.20
2018-10-12T15:12:21.165Z,24.20
2018-10-12T15:15:01.147Z,24.30
2018-10-12T15:17:29.800Z,23.90
2018-10-12T15:19:58.429Z,23.60
2018-10-12T15:22:27.064Z,23.50
2018-10-12T15:24:55.655Z,23.20
2018-10-12T15:27:24.323Z,23.10
2018-10-12T15:29:53.005Z,23.00
2018-10-12T15:32:21.531Z,22.90
2018-10-12T15:34:50.081Z,22.80
2018-10-12T15:37:18.696Z,22.70
2018-10-12T15:39:47.330Z,22.70
2018-10-12T15:42:18.793Z,22.60
2018-10-12T15:44:47.428Z,22.60
2018-10-12T15:47:16.102Z,22.60
2018-10-12T15:49:44.611Z,22.60
2018-10-12T15:52:13.073Z,22.50
2018-10-12T15:54:41.551Z,22.50
2018-10-12T15:57:10.176Z,22.40
2018-10-12T15:59:38.596Z,22.40
2018-10-12T16:02:07.195Z,22.30
2018-10-12T16:04:35.610Z,22.30
2018-10-12T16:07:04.103Z,22.20
2018-10-12T16:09:32.674Z,22.20
2018-10-12T16:12:01.180Z,22.10
2018-10-12T16:14:29.735Z,22.10
2018-10-12T16:16:58.194Z,22.00
2018-10-12T16:19:26.888Z,22.00
2018-10-12T16:21:55.365Z,21.90
2018-10-12T16:24:23.822Z,21.90
2018-10-12T16:26:52.279Z,21.80
2018-10-12T16:29:20.752Z,21.80
2018-10-12T16:31:49.257Z,21.80
2018-10-12T16:34:17.811Z,21.70
2018-10-12T16:36:46.410Z,21.70
2018-10-12T16:39:14.977Z,21.60
2018-10-12T16:41:43.481Z,21.60
2018-10-12T16:44:11.929Z,21.60
2018-10-12T16:46:40.399Z,21.60
2018-10-12T16:49:08.924Z,21.50
2018-10-12T16:51:37.399Z,21.50
2018-10-12T16:54:05.925Z,21.40
2018-10-12T16:56:34.534Z,21.40
2018-10-12T16:59:03.095Z,21.40
2018-10-12T17:01:31.588Z,21.30
2018-10-12T17:04:00.058Z,21.30
2018-10-12T17:06:28.519Z,21.20
2018-10-12T17:08:57.026Z,21.20
2018-10-12T17:11:25.703Z,21.20
2018-10-12T17:13:54.190Z,21.10
2018-10-12T17:16:22.661Z,21.10
2018-10-12T17:18:51.110Z,21.10
2018-10-12T17:21:20.413Z,21.00
2018-10-12T17:23:48.918Z,21.00
2018-10-12T17:26:17.422Z,21.00
2018-10-12T17:28:45.919Z,21.00
2018-10-12T17:31:14.412Z,21.00
2018-10-12T17:33:42.868Z,20.90
2018-10-12T17:36:11.394Z,20.90
2018-10-12T17:38:39.889Z,21.00
2018-10-12T17:41:14.792Z,21.00
2018-10-12T17:43:43.287Z,21.00
2018-10-12T17:46:11.837Z,21.00
2018-10-12T17:48:40.339Z,21.00
2018-10-12T17:51:08.817Z,21.00
2018-10-12T17:53:37.737Z,21.00
2018-10-12T17:56:06.723Z,21.00
2018-10-12T17:58:35.317Z,21.00
2018-10-12T18:01:04.301Z,21.10
2018-10-12T18:03:32.810Z,21.00
2018-10-12T18:06:02.306Z,21.10
2018-10-12T18:08:30.841Z,21.00
2018-10-12T18:11:00.224Z,21.10
2018-10-12T18:13:28.667Z,21.00
2018-10-12T18:15:57.113Z,21.00
2018-10-12T18:18:25.659Z,21.00
2018-10-12T18:20:54.137Z,21.00
2018-10-12T18:23:22.601Z,21.00
2018-10-12T18:25:51.119Z,21.00
2018-10-12T18:28:19.621Z,20.90
2018-10-12T18:30:48.104Z,20.90
2018-10-12T18:33:16.582Z,20.90
2018-10-12T18:35:45.065Z,20.80
2018-10-12T18:38:13.510Z,20.80
2018-10-12T18:40:42.050Z,20.80
2018-10-12T18:43:10.595Z,20.70
2018-10-12T18:45:39.120Z,20.70
2018-10-12T18:48:07.808Z,20.70
2018-10-12T18:50:36.340Z,20.70
2018-10-12T18:53:04.728Z,20.60
2018-10-12T18:55:33.185Z,20.70
2018-10-12T18:58:01.620Z,20.70
2018-10-12T19:00:30.119Z,20.70
2018-10-12T19:02:58.577Z,20.60
2018-10-12T19:05:27.048Z,20.60
2018-10-12T19:07:55.541Z,20.60
2018-10-12T19:10:24.029Z,20.60
2018-10-12T19:12:52.516Z,20.60
2018-10-12T19:15:21.000Z,20.60
2018-10-12T19:17:49.481Z,20.50
2018-10-12T19:20:17.942Z,20.50
2018-10-12T19:22:46.457Z,20.50
2018-10-12T19:25:14.958Z,20.40
2018-10-12T19:27:43.403Z,20.40
2018-10-12T19:30:11.986Z,20.30
2018-10-12T19:32:40.463Z,20.30
2018-10-12T19:35:08.984Z,20.20
2018-10-12T19:37:37.451Z,20.10
2018-10-12T19:40:06.015Z,20.10
2018-10-12T19:42:34.498Z,20.00
2018-10-12T19:45:02.973Z,20.10
2018-10-12T19:47:31.433Z,20.10
2018-10-12T19:49:59.883Z,20.20
2018-10-12T19:52:28.353Z,20.30
2018-10-12T19:54:56.847Z,20.20
2018-10-12T19:57:25.344Z,20.20
2018-10-12T19:59:53.863Z,20.20
2018-10-12T20:02:22.346Z,20.20
2018-10-12T20:04:50.822Z,20.10
2018-10-12T20:07:19.745Z,20.10
2018-10-12T20:09:48.247Z,20.00
2018-10-12T20:12:16.710Z,20.00
2018-10-12T20:14:45.164Z,20.00
2018-10-12T20:17:13.632Z,20.10
2018-10-12T20:19:42.076Z,20.10
2018-10-12T20:22:11.202Z,20.10
2018-10-12T20:24:40.374Z,20.10
2018-10-12T20:27:08.847Z,20.10
2018-10-12T20:29:37.397Z,20.10
2018-10-12T20:32:06.186Z,20.00
2018-10-12T20:34:34.725Z,20.00
2018-10-12T20:37:03.210Z,20.00
2018-10-12T20:39:31.674Z,20.00
2018-10-12T20:42:00.162Z,20.00
2018-10-12T20:44:28.594Z,20.00
2018-10-12T20:46:57.099Z,20.00
2018-10-12T20:49:25.523Z,20.00
2018-10-12T20:51:54.040Z,20.00
2018-10-12T20:54:22.512Z,19.90
2018-10-12T20:56:50.997Z,20.00
2018-10-12T20:59:19.506Z,20.00
2018-10-12T21:01:48.023Z,20.00
2018-10-12T21:04:16.482Z,20.00
2018-10-12T21:06:44.945Z,20.00
2018-10-12T21:09:13.436Z,20.00
2018-10-12T21:11:41.916Z,20.00
2018-10-12T21:14:10.380Z,19.90
2018-10-12T21:16:38.836Z,19.90
2018-10-12T21:19:07.319Z,19.90
2018-10-12T21:21:35.786Z,19.90
2018-10-12T21:24:04.264Z,19.90
2018-10-12T21:26:32.824Z,19.80
2018-10-12T21:29:01.297Z,19.70
2018-10-12T21:31:29.781Z,19.70
2018-10-12T21:33:58.307Z,19.60
2018-10-12T21:36:26.763Z,19.50
2018-10-12T21:38:55.272Z,19.50
2018-10-12T21:41:23.713Z,19.50
2018-10-12T21:43:52.166Z,19.50
2018-10-12T21:46:20.591Z,19.40
2018-10-12T21:48:49.080Z,19.40
2018-10-12T21:51:17.634Z,19.30
2018-10-12T21:53:46.082Z,19.30
2018-10-12T21:56:14.568Z,19.20
2018-10-12T21:58:43.016Z,19.10
2018-10-12T22:01:11.460Z,19.10
2018-10-12T22:03:39.906Z,19.10
2018-10-12T22:06:08.658Z,19.10
2018-10-12T22:08:42.736Z,19.10
2018-10-12T22:11:11.217Z,19.00
2018-10-12T22:13:39.738Z,19.00
2018-10-12T22:16:08.265Z,19.00
2018-10-12T22:18:36.778Z,19.00
2018-10-12T22:21:05.269Z,19.10
2018-10-12T22:23:33.773Z,19.00
2018-10-12T22:26:02.903Z,19.00
2018-10-12T22:28:31.385Z,19.00
2018-10-12T22:30:59.873Z,19.00
2018-10-12T22:33:28.281Z,19.00
2018-10-12T22:35:56.757Z,19.00
2018-10-12T22:38:25.230Z,18.90
2018-10-12T22:40:53.695Z,18.90
2018-10-12T22:43:22.164Z,18.80
2018-10-12T22:45:50.637Z,18.80
2018-10-12T22:48:19.098Z,18.80
2018-10-12T22:50:47.556Z,18.80
2018-10-12T22:53:16.032Z,18.70
2018-10-12T22:55:44.512Z,18.70
2018-10-12T22:58:13.000Z,18.70
2018-10-12T23:00:41.482Z,18.70
2018-10-12T23:03:09.910Z,18.60
2018-10-12T23:05:38.359Z,18.60
2018-10-12T23:08:06.970Z,18.50
2018-10-12T23:10:35.394Z,18.40
2018-10-12T23:13:03.826Z,18.40
2018-10-12T23:15:32.283Z,18.40
2018-10-12T23:18:00.735Z,18.40
2018-10-12T23:20:29.215Z,18.30
2018-10-12T23:22:57.651Z,18.30
2018-10-12T23:25:26.111Z,18.30
2018-10-12T23:27:54.581Z,18.30
2018-10-12T23:30:23.017Z,18.30
2018-10-12T23:32:51.516Z,18.40
2018-10-12T23:35:20.039Z,18.40
2018-10-12T23:37:48.557Z,18.40
2018-10-12T23:40:17.105Z,18.40
2018-10-12T23:42:45.547Z,18.40
2018-10-12T23:45:14.018Z,18.30
2018-10-12T23:47:42.457Z,18.30
2018-10-12T23:50:10.972Z,18.20
2018-10-12T23:52:39.436Z,18.30
2018-10-12T23:55:07.934Z,18.20
2018-10-12T23:57:36.415Z,18.20
